sensor_id;sensor_type;location;lat;lon;timestamp;P1;durP1;ratioP1;P2;durP2;ratioP2
5058;SDS011;2548;52.050;11.036;2023-07-13T00:01:17;4.47;;;2.30;;
5058;SDS011;2548;52.050;11.036;2023-07-13T00:03:50;5.03;;;2.63;;
5058;SDS011;2548;52.050;11.036;2023-07-13T00:06:18;5.00;;;2.70;;
5058;SDS011;2548;52.050;11.036;2023-07-13T00:08:46;4.00;;;3.63;;
5058;SDS011;2548;52.050;11.036;2023-07-13T00:11:26;2.93;;;2.63;;
5058;SDS011;2548;52.050;11.036;2023-07-13T00:14:06;4.10;;;3.17;;
5058;SDS011;2548;52.050;11.036;2023-07-13T00:16:38;5.77;;;3.57;;
5058;SDS011;2548;52.050;11.036;2023-07-13T00:19:21;3.60;;;3.40;;
5058;SDS011;2548;52.050;11.036;2023-07-13T00:21:51;8.50;;;4.40;;
5058;SDS011;2548;52.050;11.036;2023-07-13T00:24:30;5.27;;;4.80;;
5058;SDS011;2548;52.050;11.036;2023-07-13T00:26:57;4.20;;;3.60;;
5058;SDS011;2548;52.050;11.036;2023-07-13T00:29:30;4.70;;;3.70;;
5058;SDS011;2548;52.050;11.036;2023-07-13T00:31:59;4.60;;;4.20;;
5058;SDS011;2548;52.050;11.036;2023-07-13T00:34:28;6.90;;;4.17;;
5058;SDS011;2548;52.050;11.036;2023-07-13T00:36:56;5.17;;;4.70;;
5058;SDS011;2548;52.050;11.036;2023-07-13T00:39:29;4.23;;;3.93;;
5058;SDS011;2548;52.050;11.036;2023-07-13T00:41:59;5.80;;;3.87;;
5058;SDS011;2548;52.050;11.036;2023-07-13T00:44:33;4.10;;;3.70;;
5058;SDS011;2548;52.050;11.036;2023-07-13T00:47:00;8.23;;;3.80;;
5058;SDS011;2548;52.050;11.036;2023-07-13T00:49:30;3.60;;;3.40;;
5058;SDS011;2548;52.050;11.036;2023-07-13T00:52:01;3.70;;;3.30;;
5058;SDS011;2548;52.050;11.036;2023-07-13T00:54:32;3.93;;;3.40;;
5058;SDS011;2548;52.050;11.036;2023-07-13T00:57:02;4.05;;;3.78;;
5058;SDS011;2548;52.050;11.036;2023-07-13T00:59:32;9.20;;;4.13;;
5058;SDS011;2548;52.050;11.036;2023-07-13T01:02:08;3.80;;;3.50;;
5058;SDS011;2548;52.050;11.036;2023-07-13T01:04:45;3.78;;;3.40;;
5058;SDS011;2548;52.050;11.036;2023-07-13T01:07:13;6.17;;;3.40;;
5058;SDS011;2548;52.050;11.036;2023-07-13T01:09:49;4.10;;;3.60;;
5058;SDS011;2548;52.050;11.036;2023-07-13T01:12:22;8.05;;;5.03;;
5058;SDS011;2548;52.050;11.036;2023-07-13T01:15:03;7.10;;;3.60;;
5058;SDS011;2548;52.050;11.036;2023-07-13T01:17:33;4.38;;;3.95;;
5058;SDS011;2548;52.050;11.036;2023-07-13T01:20:02;3.72;;;3.53;;
5058;SDS011;2548;52.050;11.036;2023-07-13T01:22:34;4.18;;;3.70;;
5058;SDS011;2548;52.050;11.036;2023-07-13T01:25:02;4.90;;;4.03;;
5058;SDS011;2548;52.050;11.036;2023-07-13T01:27:31;3.70;;;3.40;;
5058;SDS011;2548;52.050;11.036;2023-07-13T01:30:10;7.82;;;4.20;;
5058;SDS011;2548;52.050;11.036;2023-07-13T01:32:41;8.63;;;4.88;;
5058;SDS011;2548;52.050;11.036;2023-07-13T01:35:09;5.13;;;4.03;;
5058;SDS011;2548;52.050;11.036;2023-07-13T01:37:43;6.60;;;4.50;;
5058;SDS011;2548;52.050;11.036;2023-07-13T01:40:13;5.43;;;3.63;;
5058;SDS011;2548;52.050;11.036;2023-07-13T01:42:43;5.30;;;3.75;;
5058;SDS011;2548;52.050;11.036;2023-07-13T01:45:11;4.70;;;4.15;;
5058;SDS011;2548;52.050;11.036;2023-07-13T01:47:38;7.03;;;4.20;;
5058;SDS011;2548;52.050;11.036;2023-07-13T01:50:09;4.90;;;3.90;;
5058;SDS011;2548;52.050;11.036;2023-07-13T01:52:37;4.30;;;4.10;;
5058;SDS011;2548;52.050;11.036;2023-07-13T01:55:06;4.43;;;3.97;;
5058;SDS011;2548;52.050;11.036;2023-07-13T01:57:35;7.65;;;3.95;;
5058;SDS011;2548;52.050;11.036;2023-07-13T02:00:09;4.20;;;3.78;;
5058;SDS011;2548;52.050;11.036;2023-07-13T02:02:53;6.82;;;4.00;;
5058;SDS011;2548;52.050;11.036;2023-07-13T02:05:20;4.50;;;3.90;;
5058;SDS011;2548;52.050;11.036;2023-07-13T02:07:48;5.28;;;4.35;;
5058;SDS011;2548;52.050;11.036;2023-07-13T02:10:22;5.65;;;3.72;;
5058;SDS011;2548;52.050;11.036;2023-07-13T02:12:50;5.78;;;4.20;;
5058;SDS011;2548;52.050;11.036;2023-07-13T02:15:18;6.07;;;4.15;;
5058;SDS011;2548;52.050;11.036;2023-07-13T02:17:45;4.60;;;4.03;;
5058;SDS011;2548;52.050;11.036;2023-07-13T02:20:13;3.40;;;3.10;;
5058;SDS011;2548;52.050;11.036;2023-07-13T02:22:49;4.10;;;3.87;;
5058;SDS011;2548;52.050;11.036;2023-07-13T02:25:25;6.50;;;3.63;;
5058;SDS011;2548;52.050;11.036;2023-07-13T02:27:52;3.90;;;3.57;;
5058;SDS011;2548;52.050;11.036;2023-07-13T02:30:20;4.82;;;3.90;;
5058;SDS011;2548;52.050;11.036;2023-07-13T02:32:53;4.70;;;4.07;;
5058;SDS011;2548;52.050;11.036;2023-07-13T02:35:27;8.00;;;4.67;;
5058;SDS011;2548;52.050;11.036;2023-07-13T02:37:54;4.68;;;4.28;;
5058;SDS011;2548;52.050;11.036;2023-07-13T02:40:24;8.43;;;3.90;;
5058;SDS011;2548;52.050;11.036;2023-07-13T02:42:52;4.07;;;3.67;;
5058;SDS011;2548;52.050;11.036;2023-07-13T02:45:22;4.57;;;3.80;;
5058;SDS011;2548;52.050;11.036;2023-07-13T02:47:52;4.80;;;3.45;;
5058;SDS011;2548;52.050;11.036;2023-07-13T02:50:22;5.30;;;3.90;;
5058;SDS011;2548;52.050;11.036;2023-07-13T02:52:50;11.73;;;4.40;;
5058;SDS011;2548;52.050;11.036;2023-07-13T02:55:17;3.90;;;3.60;;
5058;SDS011;2548;52.050;11.036;2023-07-13T02:57:46;3.30;;;3.10;;
5058;SDS011;2548;52.050;11.036;2023-07-13T03:00:16;4.75;;;4.13;;
5058;SDS011;2548;52.050;11.036;2023-07-13T03:02:45;4.60;;;3.40;;
5058;SDS011;2548;52.050;11.036;2023-07-13T03:05:21;5.57;;;3.93;;
5058;SDS011;2548;52.050;11.036;2023-07-13T03:07:55;4.17;;;3.77;;
5058;SDS011;2548;52.050;11.036;2023-07-13T03:10:23;5.15;;;4.35;;
5058;SDS011;2548;52.050;11.036;2023-07-13T03:12:56;8.48;;;4.60;;
5058;SDS011;2548;52.050;11.036;2023-07-13T03:15:27;5.03;;;4.15;;
5058;SDS011;2548;52.050;11.036;2023-07-13T03:18:08;5.07;;;4.20;;
5058;SDS011;2548;52.050;11.036;2023-07-13T03:20:40;7.25;;;5.05;;
5058;SDS011;2548;52.050;11.036;2023-07-13T03:23:10;4.70;;;4.40;;
5058;SDS011;2548;52.050;11.036;2023-07-13T03:25:40;5.18;;;4.40;;
5058;SDS011;2548;52.050;11.036;2023-07-13T03:28:10;6.25;;;4.45;;
5058;SDS011;2548;52.050;11.036;2023-07-13T03:30:41;4.78;;;4.20;;
5058;SDS011;2548;52.050;11.036;2023-07-13T03:33:08;4.63;;;4.30;;
5058;SDS011;2548;52.050;11.036;2023-07-13T03:35:39;6.10;;;4.32;;
5058;SDS011;2548;52.050;11.036;2023-07-13T03:38:08;5.70;;;4.07;;
5058;SDS011;2548;52.050;11.036;2023-07-13T03:40:38;4.82;;;4.25;;
5058;SDS011;2548;52.050;11.036;2023-07-13T03:43:06;5.00;;;4.70;;
5058;SDS011;2548;52.050;11.036;2023-07-13T03:45:34;5.07;;;4.00;;
5058;SDS011;2548;52.050;11.036;2023-07-13T03:48:04;7.00;;;3.95;;
5058;SDS011;2548;52.050;11.036;2023-07-13T03:50:33;7.80;;;4.32;;
5058;SDS011;2548;52.050;11.036;2023-07-13T03:53:03;4.85;;;4.30;;
5058;SDS011;2548;52.050;11.036;2023-07-13T03:55:30;6.22;;;5.20;;
5058;SDS011;2548;52.050;11.036;2023-07-13T03:57:59;4.75;;;4.45;;
5058;SDS011;2548;52.050;11.036;2023-07-13T04:00:51;6.32;;;4.55;;
5058;SDS011;2548;52.050;11.036;2023-07-13T04:03:22;9.75;;;4.70;;
5058;SDS011;2548;52.050;11.036;2023-07-13T04:05:54;5.40;;;4.65;;
5058;SDS011;2548;52.050;11.036;2023-07-13T04:08:26;4.72;;;4.28;;
5058;SDS011;2548;52.050;11.036;2023-07-13T04:10:54;4.55;;;4.15;;
5058;SDS011;2548;52.050;11.036;2023-07-13T04:13:25;5.40;;;4.35;;
5058;SDS011;2548;52.050;11.036;2023-07-13T04:15:55;9.50;;;4.43;;
5058;SDS011;2548;52.050;11.036;2023-07-13T04:18:22;5.53;;;4.18;;
5058;SDS011;2548;52.050;11.036;2023-07-13T04:20:53;6.45;;;3.83;;
5058;SDS011;2548;52.050;11.036;2023-07-13T04:23:20;5.07;;;4.32;;
5058;SDS011;2548;52.050;11.036;2023-07-13T04:25:57;5.65;;;5.05;;
5058;SDS011;2548;52.050;11.036;2023-07-13T04:28:25;4.72;;;4.40;;
5058;SDS011;2548;52.050;11.036;2023-07-13T04:30:52;9.80;;;5.50;;
5058;SDS011;2548;52.050;11.036;2023-07-13T04:33:25;6.30;;;4.63;;
5058;SDS011;2548;52.050;11.036;2023-07-13T04:35:54;5.70;;;4.97;;
5058;SDS011;2548;52.050;11.036;2023-07-13T04:38:23;5.70;;;4.68;;
5058;SDS011;2548;52.050;11.036;2023-07-13T04:41:05;5.10;;;4.50;;
5058;SDS011;2548;52.050;11.036;2023-07-13T04:43:34;5.60;;;5.07;;
5058;SDS011;2548;52.050;11.036;2023-07-13T04:46:11;4.55;;;3.95;;
5058;SDS011;2548;52.050;11.036;2023-07-13T04:48:43;6.53;;;4.60;;
5058;SDS011;2548;52.050;11.036;2023-07-13T04:51:11;6.00;;;4.50;;
5058;SDS011;2548;52.050;11.036;2023-07-13T04:53:41;6.00;;;4.88;;
5058;SDS011;2548;52.050;11.036;2023-07-13T04:56:10;4.30;;;3.90;;
5058;SDS011;2548;52.050;11.036;2023-07-13T04:58:37;4.80;;;4.50;;
5058;SDS011;2548;52.050;11.036;2023-07-13T05:01:06;4.30;;;4.10;;
5058;SDS011;2548;52.050;11.036;2023-07-13T05:03:39;5.80;;;4.35;;
5058;SDS011;2548;52.050;11.036;2023-07-13T05:06:12;8.15;;;4.80;;
5058;SDS011;2548;52.050;11.036;2023-07-13T05:08:43;6.10;;;4.60;;
5058;SDS011;2548;52.050;11.036;2023-07-13T05:11:10;4.80;;;4.40;;
5058;SDS011;2548;52.050;11.036;2023-07-13T05:13:38;11.98;;;4.45;;
5058;SDS011;2548;52.050;11.036;2023-07-13T05:16:08;5.50;;;3.80;;
5058;SDS011;2548;52.050;11.036;2023-07-13T05:18:37;7.05;;;4.00;;
5058;SDS011;2548;52.050;11.036;2023-07-13T05:21:05;4.63;;;4.23;;
5058;SDS011;2548;52.050;11.036;2023-07-13T05:23:36;7.45;;;4.20;;
5058;SDS011;2548;52.050;11.036;2023-07-13T05:26:08;4.20;;;3.90;;
5058;SDS011;2548;52.050;11.036;2023-07-13T05:28:35;5.50;;;4.97;;
5058;SDS011;2548;52.050;11.036;2023-07-13T05:31:03;4.28;;;3.90;;
5058;SDS011;2548;52.050;11.036;2023-07-13T05:33:31;6.55;;;4.57;;
5058;SDS011;2548;52.050;11.036;2023-07-13T05:36:11;5.83;;;4.30;;
5058;SDS011;2548;52.050;11.036;2023-07-13T05:38:43;4.28;;;3.97;;
5058;SDS011;2548;52.050;11.036;2023-07-13T05:41:12;4.70;;;4.20;;
5058;SDS011;2548;52.050;11.036;2023-07-13T05:43:39;6.38;;;5.00;;
5058;SDS011;2548;52.050;11.036;2023-07-13T05:46:19;4.20;;;3.90;;
5058;SDS011;2548;52.050;11.036;2023-07-13T05:48:49;22.77;;;4.18;;
5058;SDS011;2548;52.050;11.036;2023-07-13T05:51:21;10.03;;;3.90;;
5058;SDS011;2548;52.050;11.036;2023-07-13T05:53:51;6.23;;;4.70;;
5058;SDS011;2548;52.050;11.036;2023-07-13T05:56:22;4.53;;;4.13;;
5058;SDS011;2548;52.050;11.036;2023-07-13T05:58:53;6.93;;;3.90;;
5058;SDS011;2548;52.050;11.036;2023-07-13T06:01:21;5.50;;;4.13;;
5058;SDS011;2548;52.050;11.036;2023-07-13T06:03:49;5.32;;;4.10;;
5058;SDS011;2548;52.050;11.036;2023-07-13T06:06:21;6.97;;;3.90;;
5058;SDS011;2548;52.050;11.036;2023-07-13T06:08:52;8.53;;;3.90;;
5058;SDS011;2548;52.050;11.036;2023-07-13T06:11:20;8.27;;;3.57;;
5058;SDS011;2548;52.050;11.036;2023-07-13T06:13:56;8.10;;;4.23;;
5058;SDS011;2548;52.050;11.036;2023-07-13T06:16:26;7.37;;;3.83;;
5058;SDS011;2548;52.050;11.036;2023-07-13T06:18:54;8.53;;;4.57;;
5058;SDS011;2548;52.050;11.036;2023-07-13T06:21:25;7.00;;;4.07;;
5058;SDS011;2548;52.050;11.036;2023-07-13T06:23:53;3.50;;;3.20;;
5058;SDS011;2548;52.050;11.036;2023-07-13T06:26:26;8.00;;;3.30;;
5058;SDS011;2548;52.050;11.036;2023-07-13T06:28:55;5.83;;;3.43;;
5058;SDS011;2548;52.050;11.036;2023-07-13T06:31:22;3.03;;;2.80;;
5058;SDS011;2548;52.050;11.036;2023-07-13T06:33:58;7.47;;;3.47;;
5058;SDS011;2548;52.050;11.036;2023-07-13T06:36:27;12.03;;;2.90;;
5058;SDS011;2548;52.050;11.036;2023-07-13T06:38:55;5.00;;;2.70;;
5058;SDS011;2548;52.050;11.036;2023-07-13T06:41:24;4.53;;;3.03;;
5058;SDS011;2548;52.050;11.036;2023-07-13T06:44:04;5.90;;;2.93;;
5058;SDS011;2548;52.050;11.036;2023-07-13T06:46:35;6.80;;;2.60;;
5058;SDS011;2548;52.050;11.036;2023-07-13T06:49:11;4.77;;;2.60;;
5058;SDS011;2548;52.050;11.036;2023-07-13T06:51:40;8.13;;;2.87;;
5058;SDS011;2548;52.050;11.036;2023-07-13T06:54:10;10.60;;;2.60;;
5058;SDS011;2548;52.050;11.036;2023-07-13T06:56:37;7.70;;;2.10;;
5058;SDS011;2548;52.050;11.036;2023-07-13T06:59:05;6.97;;;2.83;;
5058;SDS011;2548;52.050;11.036;2023-07-13T07:01:35;6.20;;;2.07;;
5058;SDS011;2548;52.050;11.036;2023-07-13T07:04:11;6.53;;;2.00;;
5058;SDS011;2548;52.050;11.036;2023-07-13T07:06:46;7.90;;;2.60;;
5058;SDS011;2548;52.050;11.036;2023-07-13T07:09:14;5.13;;;2.10;;
5058;SDS011;2548;52.050;11.036;2023-07-13T07:11:44;7.07;;;1.83;;
5058;SDS011;2548;52.050;11.036;2023-07-13T07:14:12;4.73;;;2.47;;
5058;SDS011;2548;52.050;11.036;2023-07-13T07:16:51;5.50;;;2.70;;
5058;SDS011;2548;52.050;11.036;2023-07-13T07:19:25;6.93;;;2.10;;
5058;SDS011;2548;52.050;11.036;2023-07-13T07:21:53;12.40;;;3.33;;
5058;SDS011;2548;52.050;11.036;2023-07-13T07:24:23;4.70;;;1.90;;
5058;SDS011;2548;52.050;11.036;2023-07-13T07:26:51;7.97;;;2.40;;
5058;SDS011;2548;52.050;11.036;2023-07-13T07:29:24;5.50;;;2.87;;
5058;SDS011;2548;52.050;11.036;2023-07-13T07:32:02;5.10;;;2.77;;
5058;SDS011;2548;52.050;11.036;2023-07-13T07:34:30;4.03;;;2.20;;
5058;SDS011;2548;52.050;11.036;2023-07-13T07:37:06;5.87;;;2.40;;
5058;SDS011;2548;52.050;11.036;2023-07-13T07:39:37;4.80;;;2.50;;
5058;SDS011;2548;52.050;11.036;2023-07-13T07:42:05;11.33;;;2.57;;
5058;SDS011;2548;52.050;11.036;2023-07-13T07:44:33;6.73;;;1.97;;
5058;SDS011;2548;52.050;11.036;2023-07-13T07:47:06;8.63;;;2.60;;
5058;SDS011;2548;52.050;11.036;2023-07-13T07:49:37;8.50;;;2.37;;
5058;SDS011;2548;52.050;11.036;2023-07-13T07:52:11;3.90;;;2.97;;
5058;SDS011;2548;52.050;11.036;2023-07-13T07:54:42;8.47;;;2.70;;
5058;SDS011;2548;52.050;11.036;2023-07-13T07:57:23;5.97;;;2.70;;
5058;SDS011;2548;52.050;11.036;2023-07-13T07:59:52;7.50;;;3.10;;
5058;SDS011;2548;52.050;11.036;2023-07-13T08:02:22;3.10;;;2.90;;
5058;SDS011;2548;52.050;11.036;2023-07-13T08:04:51;10.03;;;3.00;;
5058;SDS011;2548;52.050;11.036;2023-07-13T08:07:22;6.33;;;2.90;;
5058;SDS011;2548;52.050;11.036;2023-07-13T08:09:53;4.60;;;2.90;;
5058;SDS011;2548;52.050;11.036;2023-07-13T08:12:21;10.53;;;3.63;;
5058;SDS011;2548;52.050;11.036;2023-07-13T08:14:53;6.60;;;2.60;;
5058;SDS011;2548;52.050;11.036;2023-07-13T08:17:23;8.50;;;2.83;;
5058;SDS011;2548;52.050;11.036;2023-07-13T08:19:51;6.10;;;2.70;;
5058;SDS011;2548;52.050;11.036;2023-07-13T08:22:18;9.27;;;3.43;;
5058;SDS011;2548;52.050;11.036;2023-07-13T08:24:47;5.80;;;3.30;;
5058;SDS011;2548;52.050;11.036;2023-07-13T08:27:21;10.30;;;4.00;;
5058;SDS011;2548;52.050;11.036;2023-07-13T08:29:48;7.20;;;3.60;;
5058;SDS011;2548;52.050;11.036;2023-07-13T08:32:17;6.20;;;3.17;;
5058;SDS011;2548;52.050;11.036;2023-07-13T08:34:57;7.23;;;2.80;;
5058;SDS011;2548;52.050;11.036;2023-07-13T08:37:24;8.37;;;3.80;;
5058;SDS011;2548;52.050;11.036;2023-07-13T08:39:56;9.13;;;4.23;;
5058;SDS011;2548;52.050;11.036;2023-07-13T08:42:29;7.33;;;3.30;;
5058;SDS011;2548;52.050;11.036;2023-07-13T08:45:05;10.57;;;3.00;;
5058;SDS011;2548;52.050;11.036;2023-07-13T08:47:44;7.87;;;3.47;;
5058;SDS011;2548;52.050;11.036;2023-07-13T08:50:17;11.83;;;3.00;;
5058;SDS011;2548;52.050;11.036;2023-07-13T08:52:59;7.70;;;3.37;;
5058;SDS011;2548;52.050;11.036;2023-07-13T08:55:33;7.03;;;3.17;;
5058;SDS011;2548;52.050;11.036;2023-07-13T08:58:13;8.70;;;2.50;;
5058;SDS011;2548;52.050;11.036;2023-07-13T09:00:44;6.80;;;3.57;;
5058;SDS011;2548;52.050;11.036;2023-07-13T09:03:21;6.67;;;2.83;;
5058;SDS011;2548;52.050;11.036;2023-07-13T09:05:56;5.40;;;2.23;;
5058;SDS011;2548;52.050;11.036;2023-07-13T09:08:39;2.60;;;1.43;;
5058;SDS011;2548;52.050;11.036;2023-07-13T09:11:29;1.10;;;1.00;;
5058;SDS011;2548;52.050;11.036;2023-07-13T09:14:13;3.23;;;1.40;;
5058;SDS011;2548;52.050;11.036;2023-07-13T09:17:11;5.57;;;1.33;;
5058;SDS011;2548;52.050;11.036;2023-07-13T09:19:43;2.43;;;1.20;;
5058;SDS011;2548;52.050;11.036;2023-07-13T09:22:21;9.57;;;1.63;;
5058;SDS011;2548;52.050;11.036;2023-07-13T09:24:57;6.47;;;2.20;;
5058;SDS011;2548;52.050;11.036;2023-07-13T09:27:33;5.70;;;2.00;;
5058;SDS011;2548;52.050;11.036;2023-07-13T09:30:21;3.73;;;1.73;;
5058;SDS011;2548;52.050;11.036;2023-07-13T09:32:58;2.80;;;1.77;;
5058;SDS011;2548;52.050;11.036;2023-07-13T09:35:26;5.27;;;1.97;;
5058;SDS011;2548;52.050;11.036;2023-07-13T09:37:58;2.80;;;1.47;;
5058;SDS011;2548;52.050;11.036;2023-07-13T09:40:36;2.90;;;1.77;;
5058;SDS011;2548;52.050;11.036;2023-07-13T09:43:29;5.30;;;1.67;;
5058;SDS011;2548;52.050;11.036;2023-07-13T09:46:00;1.93;;;1.80;;
5058;SDS011;2548;52.050;11.036;2023-07-13T09:48:33;7.23;;;2.00;;
5058;SDS011;2548;52.050;11.036;2023-07-13T09:51:15;11.43;;;1.57;;
5058;SDS011;2548;52.050;11.036;2023-07-13T09:53:43;2.93;;;1.30;;
5058;SDS011;2548;52.050;11.036;2023-07-13T09:56:21;2.07;;;1.37;;
5058;SDS011;2548;52.050;11.036;2023-07-13T09:58:51;8.13;;;1.93;;
5058;SDS011;2548;52.050;11.036;2023-07-13T10:01:31;2.30;;;1.70;;
5058;SDS011;2548;52.050;11.036;2023-07-13T10:04:09;2.70;;;1.00;;
5058;SDS011;2548;52.050;11.036;2023-07-13T10:06:39;1.80;;;0.90;;
5058;SDS011;2548;52.050;11.036;2023-07-13T10:09:08;4.50;;;1.73;;
5058;SDS011;2548;52.050;11.036;2023-07-13T10:11:37;3.27;;;1.60;;
5058;SDS011;2548;52.050;11.036;2023-07-13T10:14:11;3.90;;;1.40;;
5058;SDS011;2548;52.050;11.036;2023-07-13T10:16:44;2.50;;;1.20;;
5058;SDS011;2548;52.050;11.036;2023-07-13T10:19:17;8.53;;;1.87;;
5058;SDS011;2548;52.050;11.036;2023-07-13T10:21:50;2.37;;;1.43;;
5058;SDS011;2548;52.050;11.036;2023-07-13T10:24:24;6.00;;;1.33;;
5058;SDS011;2548;52.050;11.036;2023-07-13T10:26:58;6.00;;;1.73;;
5058;SDS011;2548;52.050;11.036;2023-07-13T10:29:32;1.77;;;1.30;;
5058;SDS011;2548;52.050;11.036;2023-07-13T10:32:04;4.37;;;1.10;;
5058;SDS011;2548;52.050;11.036;2023-07-13T10:34:37;4.63;;;1.23;;
5058;SDS011;2548;52.050;11.036;2023-07-13T10:37:06;3.73;;;1.63;;
5058;SDS011;2548;52.050;11.036;2023-07-13T10:39:45;3.17;;;1.20;;
5058;SDS011;2548;52.050;11.036;2023-07-13T10:42:25;7.03;;;1.33;;
5058;SDS011;2548;52.050;11.036;2023-07-13T10:44:57;1.80;;;1.17;;
5058;SDS011;2548;52.050;11.036;2023-07-13T10:47:25;1.40;;;1.10;;
5058;SDS011;2548;52.050;11.036;2023-07-13T10:49:54;5.00;;;1.70;;
5058;SDS011;2548;52.050;11.036;2023-07-13T10:58:20;5.70;;;1.60;;
5058;SDS011;2548;52.050;11.036;2023-07-13T11:00:51;3.80;;;1.33;;
5058;SDS011;2548;52.050;11.036;2023-07-13T11:03:25;5.00;;;1.30;;
5058;SDS011;2548;52.050;11.036;2023-07-13T11:06:05;2.30;;;1.60;;
5058;SDS011;2548;52.050;11.036;2023-07-13T11:08:50;6.10;;;1.60;;
5058;SDS011;2548;52.050;11.036;2023-07-13T11:11:36;1.50;;;1.40;;
5058;SDS011;2548;52.050;11.036;2023-07-13T11:14:14;4.60;;;1.40;;
5058;SDS011;2548;52.050;11.036;2023-07-13T11:16:57;1.53;;;1.43;;
5058;SDS011;2548;52.050;11.036;2023-07-13T11:22:24;3.77;;;1.70;;
5058;SDS011;2548;52.050;11.036;2023-07-13T11:28:06;2.80;;;1.30;;
5058;SDS011;2548;52.050;11.036;2023-07-13T11:31:02;3.63;;;1.50;;
5058;SDS011;2548;52.050;11.036;2023-07-13T11:34:02;3.73;;;1.30;;
5058;SDS011;2548;52.050;11.036;2023-07-13T11:36:36;3.10;;;1.63;;
5058;SDS011;2548;52.050;11.036;2023-07-13T11:39:24;5.73;;;1.40;;
5058;SDS011;2548;52.050;11.036;2023-07-13T11:42:00;3.57;;;1.40;;
5058;SDS011;2548;52.050;11.036;2023-07-13T11:44:34;2.67;;;1.00;;
5058;SDS011;2548;52.050;11.036;2023-07-13T11:47:07;4.07;;;1.37;;
5058;SDS011;2548;52.050;11.036;2023-07-13T11:49:41;3.07;;;1.13;;
5058;SDS011;2548;52.050;11.036;2023-07-13T11:52:16;2.87;;;1.37;;
5058;SDS011;2548;52.050;11.036;2023-07-13T11:54:48;1.90;;;1.67;;
5058;SDS011;2548;52.050;11.036;2023-07-13T11:57:23;3.97;;;1.50;;
5058;SDS011;2548;52.050;11.036;2023-07-13T11:59:56;10.33;;;1.67;;
5058;SDS011;2548;52.050;11.036;2023-07-13T12:02:31;1.50;;;1.20;;
5058;SDS011;2548;52.050;11.036;2023-07-13T12:05:02;1.77;;;1.20;;
5058;SDS011;2548;52.050;11.036;2023-07-13T12:07:35;1.97;;;1.50;;
5058;SDS011;2548;52.050;11.036;2023-07-13T12:10:13;1.67;;;0.97;;
5058;SDS011;2548;52.050;11.036;2023-07-13T12:12:50;1.90;;;1.40;;
5058;SDS011;2548;52.050;11.036;2023-07-13T12:15:20;1.10;;;1.00;;
5058;SDS011;2548;52.050;11.036;2023-07-13T12:17:49;1.70;;;1.60;;
5058;SDS011;2548;52.050;11.036;2023-07-13T12:20:26;3.47;;;1.30;;
5058;SDS011;2548;52.050;11.036;2023-07-13T12:22:55;3.73;;;1.47;;
5058;SDS011;2548;52.050;11.036;2023-07-13T12:25:28;2.50;;;1.50;;
5058;SDS011;2548;52.050;11.036;2023-07-13T12:27:56;2.37;;;1.20;;
5058;SDS011;2548;52.050;11.036;2023-07-13T12:30:47;2.80;;;1.47;;
5058;SDS011;2548;52.050;11.036;2023-07-13T12:33:15;1.10;;;1.00;;
5058;SDS011;2548;52.050;11.036;2023-07-13T12:35:46;2.60;;;1.57;;
5058;SDS011;2548;52.050;11.036;2023-07-13T12:38:18;3.80;;;1.70;;
5058;SDS011;2548;52.050;11.036;2023-07-13T12:40:50;3.23;;;1.53;;
5058;SDS011;2548;52.050;11.036;2023-07-13T12:43:19;2.80;;;1.53;;
5058;SDS011;2548;52.050;11.036;2023-07-13T12:45:55;3.17;;;1.53;;
5058;SDS011;2548;52.050;11.036;2023-07-13T12:48:37;1.40;;;1.30;;
5058;SDS011;2548;52.050;11.036;2023-07-13T12:51:21;2.27;;;1.37;;
5058;SDS011;2548;52.050;11.036;2023-07-13T12:53:51;2.40;;;1.60;;
5058;SDS011;2548;52.050;11.036;2023-07-13T12:56:26;5.10;;;1.70;;
5058;SDS011;2548;52.050;11.036;2023-07-13T12:58:57;2.97;;;1.40;;
5058;SDS011;2548;52.050;11.036;2023-07-13T13:01:36;1.97;;;1.70;;
5058;SDS011;2548;52.050;11.036;2023-07-13T13:04:04;2.23;;;1.60;;
5058;SDS011;2548;52.050;11.036;2023-07-13T13:06:38;2.50;;;1.33;;
5058;SDS011;2548;52.050;11.036;2023-07-13T13:09:14;6.93;;;1.73;;
5058;SDS011;2548;52.050;11.036;2023-07-13T13:11:44;3.37;;;1.90;;
5058;SDS011;2548;52.050;11.036;2023-07-13T13:14:12;1.67;;;1.57;;
5058;SDS011;2548;52.050;11.036;2023-07-13T13:16:46;1.73;;;1.57;;
5058;SDS011;2548;52.050;11.036;2023-07-13T13:19:23;2.70;;;1.80;;
5058;SDS011;2548;52.050;11.036;2023-07-13T13:21:54;4.83;;;1.60;;
5058;SDS011;2548;52.050;11.036;2023-07-13T13:24:27;1.57;;;1.40;;
5058;SDS011;2548;52.050;11.036;2023-07-13T13:26:55;2.73;;;1.30;;
5058;SDS011;2548;52.050;11.036;2023-07-13T13:29:24;3.90;;;1.57;;
5058;SDS011;2548;52.050;11.036;2023-07-13T13:31:52;3.13;;;1.93;;
5058;SDS011;2548;52.050;11.036;2023-07-13T13:34:21;1.40;;;1.30;;
5058;SDS011;2548;52.050;11.036;2023-07-13T13:36:52;1.93;;;1.27;;
5058;SDS011;2548;52.050;11.036;2023-07-13T13:39:23;2.20;;;1.67;;
5058;SDS011;2548;52.050;11.036;2023-07-13T13:41:52;1.40;;;1.23;;
5058;SDS011;2548;52.050;11.036;2023-07-13T13:44:33;4.73;;;1.60;;
5058;SDS011;2548;52.050;11.036;2023-07-13T13:47:03;2.67;;;1.60;;
5058;SDS011;2548;52.050;11.036;2023-07-13T13:49:32;1.70;;;1.60;;
5058;SDS011;2548;52.050;11.036;2023-07-13T13:52:08;9.70;;;1.73;;
5058;SDS011;2548;52.050;11.036;2023-07-13T13:54:40;1.70;;;1.60;;
5058;SDS011;2548;52.050;11.036;2023-07-13T13:57:08;5.30;;;1.73;;
5058;SDS011;2548;52.050;11.036;2023-07-13T13:59:38;3.73;;;1.90;;
5058;SDS011;2548;52.050;11.036;2023-07-13T14:02:21;4.00;;;1.80;;
5058;SDS011;2548;52.050;11.036;2023-07-13T14:04:55;2.90;;;1.50;;
5058;SDS011;2548;52.050;11.036;2023-07-13T14:07:30;2.90;;;1.63;;
5058;SDS011;2548;52.050;11.036;2023-07-13T14:09:58;2.63;;;1.90;;
5058;SDS011;2548;52.050;11.036;2023-07-13T14:12:29;2.27;;;1.80;;
5058;SDS011;2548;52.050;11.036;2023-07-13T14:15:03;4.13;;;1.70;;
5058;SDS011;2548;52.050;11.036;2023-07-13T14:17:32;1.80;;;1.70;;
5058;SDS011;2548;52.050;11.036;2023-07-13T14:20:00;2.83;;;1.43;;
5058;SDS011;2548;52.050;11.036;2023-07-13T14:22:31;4.73;;;2.13;;
5058;SDS011;2548;52.050;11.036;2023-07-13T14:24:59;4.07;;;2.20;;
5058;SDS011;2548;52.050;11.036;2023-07-13T14:27:26;2.60;;;1.60;;
5058;SDS011;2548;52.050;11.036;2023-07-13T14:29:53;2.17;;;1.80;;
5058;SDS011;2548;52.050;11.036;2023-07-13T14:32:21;1.73;;;1.63;;
5058;SDS011;2548;52.050;11.036;2023-07-13T14:34:54;1.47;;;1.33;;
5058;SDS011;2548;52.050;11.036;2023-07-13T14:37:23;2.90;;;1.60;;
5058;SDS011;2548;52.050;11.036;2023-07-13T14:39:55;2.73;;;1.83;;
5058;SDS011;2548;52.050;11.036;2023-07-13T14:42:23;2.37;;;1.80;;
5058;SDS011;2548;52.050;11.036;2023-07-13T14:44:50;2.03;;;1.90;;
5058;SDS011;2548;52.050;11.036;2023-07-13T14:47:18;4.30;;;1.93;;
5058;SDS011;2548;52.050;11.036;2023-07-13T14:49:46;11.20;;;2.03;;
5058;SDS011;2548;52.050;11.036;2023-07-13T14:52:16;2.03;;;1.60;;
5058;SDS011;2548;52.050;11.036;2023-07-13T14:54:45;2.90;;;1.90;;
5058;SDS011;2548;52.050;11.036;2023-07-13T14:57:16;5.03;;;2.03;;
5058;SDS011;2548;52.050;11.036;2023-07-13T14:59:45;2.23;;;1.80;;
5058;SDS011;2548;52.050;11.036;2023-07-13T15:02:16;6.00;;;2.07;;
5058;SDS011;2548;52.050;11.036;2023-07-13T15:04:53;3.37;;;1.97;;
5058;SDS011;2548;52.050;11.036;2023-07-13T15:07:21;1.90;;;1.70;;
5058;SDS011;2548;52.050;11.036;2023-07-13T15:09:49;1.83;;;1.40;;
5058;SDS011;2548;52.050;11.036;2023-07-13T15:12:18;2.77;;;1.70;;
5058;SDS011;2548;52.050;11.036;2023-07-13T15:14:46;1.90;;;1.80;;
5058;SDS011;2548;52.050;11.036;2023-07-13T15:17:18;3.57;;;1.60;;
5058;SDS011;2548;52.050;11.036;2023-07-13T15:19:55;1.97;;;1.30;;
5058;SDS011;2548;52.050;11.036;2023-07-13T15:22:24;1.87;;;1.40;;
5058;SDS011;2548;52.050;11.036;2023-07-13T15:24:52;2.50;;;1.60;;
5058;SDS011;2548;52.050;11.036;2023-07-13T15:27:24;2.93;;;1.70;;
5058;SDS011;2548;52.050;11.036;2023-07-13T15:29:52;1.77;;;1.57;;
5058;SDS011;2548;52.050;11.036;2023-07-13T15:32:20;1.90;;;1.80;;
5058;SDS011;2548;52.050;11.036;2023-07-13T15:34:50;1.50;;;1.30;;
5058;SDS011;2548;52.050;11.036;2023-07-13T15:37:18;3.37;;;1.70;;
5058;SDS011;2548;52.050;11.036;2023-07-13T15:39:51;2.03;;;1.80;;
5058;SDS011;2548;52.050;11.036;2023-07-13T15:42:23;9.80;;;2.63;;